createdAt,value
2023-05-18T00:02:18.471Z,96.20
2023-05-18T00:04:45.992Z,96.30
2023-05-18T00:07:14.867Z,96.10
2023-05-18T00:09:42.213Z,96.10
2023-05-18T00:12:12.440Z,96.20
2023-05-18T00:14:39.917Z,96.00
2023-05-18T00:17:07.221Z,96.10
2023-05-18T00:19:34.654Z,95.70
2023-05-18T00:22:02.406Z,95.50
2023-05-18T00:24:29.699Z,95.10
2023-05-18T00:26:57.049Z,95.30
2023-05-18T00:29:27.498Z,95.30
2023-05-18T00:31:54.916Z,95.10
2023-05-18T00:34:23.549Z,94.80
2023-05-18T00:36:51.061Z,94.80
2023-05-18T00:39:18.416Z,94.70
2023-05-18T00:41:45.694Z,94.70
2023-05-18T00:44:13.214Z,94.70
2023-05-18T00:46:44.267Z,94.70
2023-05-18T00:49:13.861Z,94.60
2023-05-18T00:51:42.020Z,94.50
2023-05-18T00:54:10.382Z,94.50
2023-05-18T00:56:43.419Z,94.20
2023-05-18T00:59:11.939Z,94.40
2023-05-18T01:01:44.057Z,94.40
2023-05-18T01:04:14.566Z,94.40
2023-05-18T01:06:43.051Z,94.30
2023-05-18T01:09:12.564Z,94.30
2023-05-18T01:12:34.381Z,94.30
2023-05-18T01:15:42.102Z,94.30
2023-05-18T01:18:29.178Z,94.20
2023-05-18T01:21:49.623Z,94.40
2023-05-18T01:24:43.321Z,94.30
2023-05-18T01:27:17.474Z,94.20
2023-05-18T01:29:48.749Z,94.20
2023-05-18T01:32:22.402Z,94.20
2023-05-18T01:34:50.633Z,94.00
2023-05-18T01:37:17.931Z,94.00
2023-05-18T01:39:45.229Z,93.90
2023-05-18T01:42:21.157Z,94.00
2023-05-18T01:44:59.350Z,94.00
2023-05-18T01:47:31.991Z,93.90
2023-05-18T01:50:37.939Z,93.80
2023-05-18T01:53:32.787Z,93.70
2023-05-18T01:56:02.455Z,93.90
2023-05-18T01:58:30.134Z,93.80
2023-05-18T02:00:57.604Z,93.70
2023-05-18T02:03:24.973Z,93.70
2023-05-18T02:05:52.505Z,93.70
2023-05-18T02:08:21.180Z,93.50
2023-05-18T02:10:49.764Z,93.50
2023-05-18T02:13:17.061Z,93.60
2023-05-18T02:15:45.052Z,93.40
2023-05-18T02:18:12.513Z,93.30
2023-05-18T02:20:41.281Z,93.50
2023-05-18T02:23:08.639Z,93.20
2023-05-18T02:25:37.248Z,93.30
2023-05-18T02:28:04.926Z,93.20
2023-05-18T02:30:33.421Z,93.20
2023-05-18T02:33:00.784Z,93.20
2023-05-18T02:35:29.876Z,93.00
2023-05-18T02:37:58.743Z,93.10
2023-05-18T02:40:26.271Z,93.00
2023-05-18T02:42:53.553Z,93.00
2023-05-18T02:45:21.616Z,92.90
2023-05-18T02:47:48.915Z,93.00
2023-05-18T02:50:16.670Z,92.90
2023-05-18T02:52:45.539Z,92.90
2023-05-18T02:55:13.973Z,92.80
2023-05-18T02:57:47.286Z,92.80
2023-05-18T03:00:16.875Z,92.80
2023-05-18T03:02:44.523Z,92.80
2023-05-18T03:05:12.032Z,92.70
2023-05-18T03:07:43.349Z,92.90
2023-05-18T03:10:10.774Z,92.90
2023-05-18T03:12:38.077Z,92.90
2023-05-18T03:15:05.956Z,92.70
2023-05-18T03:17:33.926Z,92.80
2023-05-18T03:20:06.833Z,92.70
2023-05-18T03:22:34.345Z,92.80
2023-05-18T03:25:02.481Z,92.70
2023-05-18T03:27:30.797Z,92.80
2023-05-18T03:29:58.091Z,92.80
2023-05-18T03:32:25.571Z,92.70
2023-05-18T03:34:53.449Z,92.70
2023-05-18T03:37:21.710Z,92.70
2023-05-18T03:39:49.225Z,92.70
2023-05-18T03:42:16.680Z,92.60
2023-05-18T03:44:44.594Z,92.70
2023-05-18T03:47:11.900Z,92.60
2023-05-18T03:49:39.304Z,92.70
2023-05-18T03:52:09.915Z,92.70
2023-05-18T03:54:37.595Z,92.50
2023-05-18T03:57:05.069Z,92.40
2023-05-18T03:59:32.409Z,92.40
2023-05-18T04:02:00.335Z,92.30
2023-05-18T04:04:27.790Z,92.30
2023-05-18T04:06:55.916Z,92.40
2023-05-18T04:09:23.965Z,92.20
2023-05-18T04:11:51.457Z,92.30
2023-05-18T04:14:21.036Z,92.30
2023-05-18T04:16:48.467Z,92.10
2023-05-18T04:19:16.234Z,92.00
2023-05-18T04:21:44.814Z,91.80
2023-05-18T04:24:14.615Z,91.90
2023-05-18T04:26:42.644Z,91.80
2023-05-18T04:29:13.579Z,91.80
2023-05-18T04:31:42.979Z,91.50
2023-05-18T04:34:13.166Z,91.60
2023-05-18T04:36:42.870Z,91.50
2023-05-18T04:39:11.196Z,91.50
2023-05-18T04:41:43.576Z,91.60
2023-05-18T04:44:11.049Z,91.20
2023-05-18T04:46:42.945Z,91.10
2023-05-18T04:49:14.220Z,91.00
2023-05-18T04:51:42.264Z,90.90
2023-05-18T04:55:08.105Z,90.90
2023-05-18T04:57:36.011Z,90.50
2023-05-18T05:00:05.892Z,90.30
2023-05-18T05:02:33.303Z,90.40
2023-05-18T05:05:00.787Z,90.20
2023-05-18T05:07:28.144Z,90.20
2023-05-18T05:09:55.985Z,89.90
2023-05-18T05:12:23.587Z,89.90
2023-05-18T05:14:52.432Z,89.60
2023-05-18T05:17:19.750Z,89.20
2023-05-18T05:19:47.385Z,89.80
2023-05-18T05:22:14.925Z,89.20
2023-05-18T05:24:42.569Z,88.50
2023-05-18T05:27:14.812Z,88.80
2023-05-18T05:29:43.147Z,88.30
2023-05-18T05:32:10.543Z,87.90
2023-05-18T05:34:37.871Z,87.70
2023-05-18T05:37:05.987Z,86.60
2023-05-18T05:39:41.053Z,86.70
2023-05-18T05:42:11.127Z,86.60
2023-05-18T05:44:40.952Z,86.90
2023-05-18T05:47:09.950Z,86.50
2023-05-18T05:49:37.404Z,86.70
2023-05-18T05:52:06.205Z,86.10
2023-05-18T05:54:34.828Z,85.00
2023-05-18T05:57:02.131Z,85.60
2023-05-18T05:59:33.587Z,85.90
2023-05-18T06:02:03.421Z,85.90
2023-05-18T06:04:31.972Z,85.40
2023-05-18T06:06:59.466Z,85.60
2023-05-18T06:09:27.019Z,85.50
2023-05-18T06:11:54.855Z,85.30
2023-05-18T06:14:22.295Z,84.80
2023-05-18T06:16:55.183Z,84.80
2023-05-18T06:19:22.673Z,84.50
2023-05-18T06:21:50.955Z,84.50
2023-05-18T06:24:19.940Z,84.50
2023-05-18T06:26:50.118Z,84.50
2023-05-18T06:29:24.780Z,84.70
2023-05-18T06:31:52.114Z,84.50
2023-05-18T06:34:19.423Z,84.30
2023-05-18T06:36:47.858Z,83.70
2023-05-18T06:39:15.048Z,83.60
2023-05-18T06:41:43.463Z,83.50
2023-05-18T06:44:13.785Z,83.50
2023-05-18T06:46:42.689Z,83.60
2023-05-18T06:49:10.059Z,83.70
2023-05-18T06:51:37.402Z,83.60
2023-05-18T06:54:04.860Z,83.40
2023-05-18T06:56:34.803Z,83.30
2023-05-18T06:59:04.286Z,83.40
2023-05-18T07:01:34.193Z,83.40
2023-05-18T07:04:04.693Z,83.00
2023-05-18T07:06:36.959Z,82.70
2023-05-18T07:11:52.496Z,82.80
2023-05-18T07:14:19.912Z,81.90
2023-05-18T07:16:50.551Z,82.50
2023-05-18T07:19:20.387Z,82.60
2023-05-18T07:21:47.952Z,82.70
2023-05-18T07:24:20.052Z,82.60
2023-05-18T07:27:23.217Z,82.70
2023-05-18T07:29:56.020Z,83.10
2023-05-18T07:32:23.505Z,82.70
2023-05-18T07:34:53.176Z,82.50
2023-05-18T07:37:20.594Z,82.40
2023-05-18T07:39:54.717Z,82.40
2023-05-18T07:42:24.730Z,82.20
2023-05-18T07:44:52.371Z,82.70
2023-05-18T07:47:21.595Z,82.50
2023-05-18T07:49:48.977Z,82.30
2023-05-18T07:52:16.480Z,82.40
2023-05-18T07:54:44.383Z,82.50
2023-05-18T07:57:11.696Z,82.40
2023-05-18T07:59:39.412Z,82.60
2023-05-18T08:02:20.000Z,82.20
2023-05-18T08:04:48.382Z,82.20
2023-05-18T08:07:18.495Z,82.20
2023-05-18T08:09:52.778Z,82.30
2023-05-18T08:12:23.371Z,82.30
2023-05-18T08:15:05.128Z,82.00
2023-05-18T08:17:32.484Z,82.10
2023-05-18T08:20:04.913Z,82.10
2023-05-18T08:22:35.836Z,81.60
2023-05-18T08:25:04.242Z,81.10
2023-05-18T08:27:31.904Z,81.10
2023-05-18T08:29:59.219Z,81.20
2023-05-18T08:32:26.863Z,81.30
2023-05-18T08:34:54.362Z,81.30
2023-05-18T08:37:29.635Z,81.30
2023-05-18T08:39:57.568Z,80.40
2023-05-18T08:42:50.357Z,80.20
2023-05-18T08:45:36.389Z,79.90
2023-05-18T08:48:05.938Z,80.00
2023-05-18T08:50:36.901Z,79.70
2023-05-18T08:53:09.593Z,79.00
2023-05-18T08:55:37.980Z,79.20
2023-05-18T08:58:09.337Z,78.40
2023-05-18T09:00:37.387Z,78.60
2023-05-18T09:03:06.409Z,78.90
2023-05-18T09:05:34.246Z,78.90
2023-05-18T09:08:03.791Z,78.70
2023-05-18T09:10:34.194Z,78.20
2023-05-18T09:13:09.296Z,78.60
2023-05-18T09:15:36.777Z,78.20
2023-05-18T09:18:04.433Z,78.40
2023-05-18T09:20:32.781Z,78.20
2023-05-18T09:23:06.542Z,78.60
2023-05-18T09:25:35.262Z,78.60
2023-05-18T09:28:04.583Z,78.20
2023-05-18T09:30:42.328Z,77.50
2023-05-18T09:33:23.766Z,76.10
2023-05-18T09:35:52.825Z,76.90
2023-05-18T09:38:23.357Z,75.90
2023-05-18T09:40:51.558Z,76.00
2023-05-18T09:43:19.261Z,76.00
2023-05-18T09:45:50.027Z,75.70
2023-05-18T09:48:18.118Z,75.60
2023-05-18T09:50:47.647Z,75.00
2023-05-18T09:53:15.802Z,75.10
2023-05-18T09:55:50.420Z,75.10
2023-05-18T09:58:18.032Z,74.60
2023-05-18T10:00:52.078Z,74.30
2023-05-18T10:03:22.541Z,74.20
2023-05-18T10:05:51.553Z,73.70
2023-05-18T10:08:18.910Z,73.80
2023-05-18T10:10:49.857Z,73.80
2023-05-18T10:13:19.597Z,73.50
2023-05-18T10:15:56.935Z,74.00
2023-05-18T10:18:27.098Z,73.60
2023-05-18T10:21:00.084Z,72.90
2023-05-18T10:23:33.320Z,73.20
2023-05-18T10:26:01.317Z,72.90
2023-05-18T10:28:41.401Z,72.70
2023-05-18T10:31:09.785Z,72.50
2023-05-18T10:33:38.746Z,72.90
2023-05-18T10:36:09.126Z,72.80
2023-05-18T10:38:43.584Z,72.30
2023-05-18T10:44:17.902Z,72.50
2023-05-18T10:46:49.097Z,72.00
2023-05-18T10:49:26.430Z,71.70
2023-05-18T10:51:55.321Z,72.10
2023-05-18T10:54:25.352Z,71.00
2023-05-18T10:56:54.131Z,70.90
2023-05-18T10:59:23.449Z,70.50
2023-05-18T11:01:54.050Z,70.20
2023-05-18T11:04:29.838Z,70.00
2023-05-18T11:07:02.476Z,69.60
2023-05-18T11:09:30.711Z,70.00
2023-05-18T11:12:00.374Z,69.80
2023-05-18T11:14:31.417Z,70.20
2023-05-18T11:17:17.982Z,69.80
2023-05-18T11:20:06.906Z,68.10
2023-05-18T11:22:51.580Z,68.30
2023-05-18T11:25:27.792Z,68.00
2023-05-18T11:28:02.540Z,67.50
2023-05-18T11:30:33.937Z,67.80
2023-05-18T11:33:19.155Z,67.80
2023-05-18T11:36:13.625Z,67.60
2023-05-18T11:39:02.876Z,67.20
2023-05-18T11:41:40.045Z,68.00
2023-05-18T11:44:22.301Z,68.10
2023-05-18T11:47:08.890Z,67.60
2023-05-18T11:49:47.928Z,67.80
2023-05-18T11:52:28.569Z,67.80
2023-05-18T11:55:01.158Z,68.00
2023-05-18T11:57:48.000Z,68.50
2023-05-18T12:00:17.155Z,68.80
2023-05-18T12:02:50.367Z,68.50
2023-05-18T12:05:19.576Z,69.00
2023-05-18T12:07:52.784Z,69.20
2023-05-18T12:10:24.439Z,69.20
2023-05-18T12:12:55.399Z,69.50
2023-05-18T12:15:30.352Z,69.50
2023-05-18T12:17:59.576Z,69.60
2023-05-18T12:20:44.523Z,70.20
2023-05-18T12:23:11.852Z,71.20
2023-05-18T12:25:39.302Z,70.80
2023-05-18T12:28:07.969Z,70.70
2023-05-18T12:30:36.316Z,70.60
2023-05-18T12:33:04.568Z,71.10
2023-05-18T12:35:33.944Z,71.00
2023-05-18T12:38:02.163Z,70.90
2023-05-18T12:43:39.272Z,70.50
2023-05-18T12:46:10.996Z,70.40
2023-05-18T12:48:47.134Z,70.40
2023-05-18T12:51:20.883Z,70.40
2023-05-18T12:53:51.273Z,70.60
2023-05-18T12:56:22.800Z,70.70
2023-05-18T12:59:10.687Z,70.50
2023-05-18T13:01:49.482Z,70.30
2023-05-18T13:04:17.264Z,70.50
2023-05-18T13:06:45.158Z,70.50
2023-05-18T13:09:19.751Z,70.40
2023-05-18T13:12:03.716Z,70.50
2023-05-18T13:14:38.508Z,70.60
2023-05-18T13:17:06.031Z,70.90
2023-05-18T13:19:39.618Z,70.90
2023-05-18T13:22:08.333Z,70.50
2023-05-18T13:24:35.656Z,70.50
2023-05-18T13:27:02.969Z,71.10
2023-05-18T13:29:30.347Z,70.40
2023-05-18T13:31:57.706Z,70.20
2023-05-18T13:34:25.069Z,70.00
2023-05-18T13:36:52.341Z,70.20
2023-05-18T13:39:22.826Z,70.20
2023-05-18T13:41:53.106Z,70.10
2023-05-18T13:44:20.448Z,70.10
2023-05-18T13:46:47.764Z,70.30
2023-05-18T13:49:16.788Z,70.90
2023-05-18T13:51:44.038Z,70.40
2023-05-18T13:54:11.339Z,70.10
2023-05-18T13:56:40.813Z,70.30
2023-05-18T13:59:10.535Z,70.10
2023-05-18T14:01:37.847Z,69.90
2023-05-18T14:04:08.290Z,69.60
2023-05-18T14:06:37.467Z,69.60
2023-05-18T14:09:06.019Z,69.50
2023-05-18T14:11:38.359Z,69.10
2023-05-18T14:14:05.699Z,69.10
2023-05-18T14:16:41.161Z,69.30
2023-05-18T14:19:10.460Z,68.90
2023-05-18T14:21:37.928Z,69.10
2023-05-18T14:24:09.967Z,69.20
2023-05-18T14:26:37.679Z,69.10
2023-05-18T14:29:08.099Z,69.10
2023-05-18T14:31:35.541Z,68.70
2023-05-18T14:34:03.223Z,68.60
2023-05-18T14:36:31.109Z,68.60
2023-05-18T14:38:58.464Z,68.50
2023-05-18T14:41:28.383Z,68.60
2023-05-18T14:43:55.747Z,68.00
2023-05-18T14:46:23.205Z,68.10
2023-05-18T14:48:52.001Z,68.40
2023-05-18T14:51:19.553Z,68.40
2023-05-18T14:53:56.117Z,67.90
2023-05-18T14:56:29.372Z,68.00
2023-05-18T14:59:51.905Z,68.00
2023-05-18T15:02:26.630Z,67.80
2023-05-18T15:05:13.352Z,67.40
2023-05-18T15:07:43.425Z,67.40
2023-05-18T15:10:12.311Z,67.70
2023-05-18T15:12:41.246Z,67.60
2023-05-18T15:15:14.375Z,67.80
2023-05-18T15:17:41.909Z,67.40
2023-05-18T15:20:12.546Z,67.50
2023-05-18T15:22:41.475Z,67.20
2023-05-18T15:25:09.334Z,66.70
2023-05-18T15:27:37.686Z,66.90
2023-05-18T15:30:11.755Z,67.00
2023-05-18T15:33:08.557Z,66.60
2023-05-18T15:35:38.875Z,66.30
2023-05-18T15:38:09.159Z,66.10
2023-05-18T15:40:36.852Z,66.00
2023-05-18T15:43:07.141Z,66.10
2023-05-18T15:45:59.927Z,66.00
2023-05-18T15:48:27.266Z,66.00
2023-05-18T15:50:59.048Z,65.50
2023-05-18T15:57:07.127Z,64.50
2023-05-18T15:59:36.777Z,64.60
2023-05-18T16:02:07.243Z,64.60
2023-05-18T16:04:34.673Z,64.70
2023-05-18T16:07:05.085Z,64.40
2023-05-18T16:09:32.517Z,64.20
2023-05-18T16:11:59.813Z,64.40
2023-05-18T16:14:27.105Z,64.50
2023-05-18T16:16:54.683Z,64.10
2023-05-18T16:19:22.157Z,64.10
2023-05-18T16:21:49.602Z,64.00
2023-05-18T16:24:17.150Z,63.80
2023-05-18T16:26:44.553Z,63.80
2023-05-18T16:29:12.004Z,63.90
2023-05-18T16:31:53.875Z,63.70
2023-05-18T16:34:59.474Z,63.90
2023-05-18T16:37:40.002Z,63.80
2023-05-18T16:40:16.574Z,64.00
2023-05-18T16:42:47.358Z,64.20
2023-05-18T16:45:20.442Z,64.50
2023-05-18T16:48:04.231Z,64.70
2023-05-18T16:50:52.316Z,64.70
2023-05-18T16:53:22.458Z,64.90
2023-05-18T16:55:52.782Z,65.10
2023-05-18T16:58:23.442Z,65.20
2023-05-18T17:00:50.733Z,65.30
2023-05-18T17:03:20.598Z,65.30
2023-05-18T17:05:48.631Z,65.50
2023-05-18T17:08:16.194Z,65.70
2023-05-18T17:10:43.454Z,65.70
2023-05-18T17:13:26.050Z,65.80
2023-05-18T17:15:53.390Z,66.00
2023-05-18T17:18:33.806Z,66.20
2023-05-18T17:21:21.083Z,66.40
2023-05-18T17:23:48.503Z,66.60
2023-05-18T17:26:16.282Z,67.30
2023-05-18T17:28:43.601Z,66.90
2023-05-18T17:31:10.966Z,67.00
2023-05-18T17:33:38.271Z,67.00
2023-05-18T17:36:06.024Z,66.80
2023-05-18T17:38:33.406Z,66.80
2023-05-18T17:41:01.453Z,66.90
2023-05-18T17:43:28.762Z,67.10
2023-05-18T17:45:56.125Z,67.20
2023-05-18T17:48:23.482Z,67.50
2023-05-18T17:51:16.780Z,67.80
2023-05-18T17:53:46.559Z,68.00
2023-05-18T17:56:46.007Z,68.50
2023-05-18T17:59:26.196Z,68.80
2023-05-18T18:01:56.608Z,68.90
2023-05-18T18:04:37.887Z,69.00
2023-05-18T18:07:05.723Z,69.20
2023-05-18T18:09:39.194Z,69.40
2023-05-18T18:12:06.889Z,69.60
2023-05-18T18:14:34.409Z,69.70
2023-05-18T18:17:01.793Z,70.00
2023-05-18T18:19:29.423Z,70.10
2023-05-18T18:21:57.055Z,70.30
2023-05-18T18:24:25.824Z,70.40
2023-05-18T18:26:53.193Z,70.40
2023-05-18T18:29:20.497Z,70.90
2023-05-18T18:31:47.960Z,70.90
2023-05-18T18:34:15.263Z,71.00
2023-05-18T18:36:42.589Z,71.30
2023-05-18T18:39:10.764Z,71.40
2023-05-18T18:41:38.083Z,71.50
2023-05-18T18:44:05.710Z,71.60
2023-05-18T18:46:33.391Z,71.70
2023-05-18T18:49:00.811Z,71.90
2023-05-18T18:51:28.255Z,72.40
2023-05-18T18:53:56.027Z,72.60
2023-05-18T18:56:24.899Z,72.70
2023-05-18T18:58:52.270Z,73.00
2023-05-18T19:01:19.708Z,73.00
2023-05-18T19:03:47.067Z,73.40
2023-05-18T19:06:14.930Z,73.60
2023-05-18T19:08:47.114Z,73.50
2023-05-18T19:11:14.777Z,73.80
2023-05-18T19:13:42.072Z,74.00
2023-05-18T19:16:09.514Z,74.00
2023-05-18T19:18:36.923Z,74.10
2023-05-18T19:21:04.310Z,74.10
2023-05-18T19:23:31.599Z,74.50
2023-05-18T19:25:59.633Z,74.40
2023-05-18T19:28:27.012Z,74.70
2023-05-18T19:30:55.893Z,74.60
2023-05-18T19:33:23.262Z,74.90
2023-05-18T19:35:51.780Z,74.90
2023-05-18T19:38:19.547Z,75.20
2023-05-18T19:40:46.948Z,75.50
2023-05-18T19:43:14.300Z,75.20
2023-05-18T19:45:41.865Z,75.30
2023-05-18T19:48:09.254Z,75.30
2023-05-18T19:50:36.909Z,75.50
2023-05-18T19:53:04.285Z,75.60
2023-05-18T19:55:31.950Z,75.60
2023-05-18T19:58:06.597Z,75.80
2023-05-18T20:00:34.245Z,76.40
2023-05-18T20:03:05.442Z,75.70
2023-05-18T20:05:33.546Z,76.00
2023-05-18T20:08:03.022Z,76.00
2023-05-18T20:10:36.225Z,76.00
2023-05-18T20:13:04.134Z,76.10
2023-05-18T20:15:36.684Z,76.30
2023-05-18T20:18:07.400Z,76.50
2023-05-18T20:20:36.326Z,76.60
2023-05-18T20:23:05.073Z,76.80
2023-05-18T20:25:35.151Z,76.70
2023-05-18T20:28:07.079Z,76.90
2023-05-18T20:30:46.963Z,77.10
2023-05-18T20:33:15.839Z,77.10
2023-05-18T20:35:44.130Z,77.20
2023-05-18T20:38:14.829Z,78.10
2023-05-18T20:40:42.170Z,77.40
2023-05-18T20:43:11.565Z,77.50
2023-05-18T20:45:41.509Z,77.60
2023-05-18T20:48:09.331Z,78.30
2023-05-18T20:50:37.074Z,77.70
2023-05-18T20:53:08.142Z,77.60
2023-05-18T20:55:40.479Z,77.60
2023-05-18T20:58:10.686Z,77.60
2023-05-18T21:00:38.340Z,77.70
2023-05-18T21:03:05.942Z,77.70
2023-05-18T21:05:34.826Z,77.80
2023-05-18T21:08:03.470Z,77.80
2023-05-18T21:10:32.213Z,78.70
2023-05-18T21:12:59.650Z,78.00
2023-05-18T21:15:27.022Z,77.90
2023-05-18T21:17:55.023Z,78.00
2023-05-18T21:20:26.026Z,78.20
2023-05-18T21:22:53.472Z,78.50
2023-05-18T21:25:21.167Z,78.70
2023-05-18T21:27:48.462Z,78.70
2023-05-18T21:30:17.052Z,78.80
2023-05-18T21:32:44.814Z,78.80
2023-05-18T21:35:12.208Z,78.80
2023-05-18T21:37:39.551Z,78.70
2023-05-18T21:40:10.395Z,78.80
2023-05-18T21:42:44.988Z,78.90
2023-05-18T21:45:13.584Z,78.90
2023-05-18T21:47:40.822Z,79.10
2023-05-18T21:50:08.826Z,79.50
2023-05-18T21:52:36.129Z,79.30
2023-05-18T21:55:03.705Z,79.40
2023-05-18T21:57:34.929Z,79.60
2023-05-18T22:00:04.529Z,79.50
2023-05-18T22:02:33.293Z,79.60
2023-05-18T22:05:00.764Z,79.90
2023-05-18T22:07:28.118Z,80.10
2023-05-18T22:09:55.753Z,80.10
2023-05-18T22:12:23.681Z,80.10
2023-05-18T22:14:50.934Z,80.00
2023-05-18T22:17:18.593Z,80.50
2023-05-18T22:19:46.391Z,80.40
2023-05-18T22:22:22.780Z,80.50
2023-05-18T22:24:56.366Z,80.60
2023-05-18T22:27:25.084Z,81.40
2023-05-18T22:29:52.349Z,80.70
2023-05-18T22:32:19.657Z,81.00
2023-05-18T22:34:48.020Z,81.00
2023-05-18T22:37:15.485Z,81.10
2023-05-18T22:39:43.799Z,81.10
2023-05-18T22:42:11.147Z,81.20
2023-05-18T22:44:38.472Z,81.20
2023-05-18T22:47:06.285Z,81.40
2023-05-18T22:49:35.921Z,81.50
2023-05-18T22:52:06.803Z,81.70
2023-05-18T22:54:34.267Z,81.90
2023-05-18T22:57:01.495Z,82.00
2023-05-18T22:59:29.990Z,82.10
2023-05-18T23:01:57.172Z,82.30
2023-05-18T23:04:24.571Z,82.80
2023-05-18T23:06:51.963Z,82.40
2023-05-18T23:09:20.086Z,82.80
2023-05-18T23:11:48.642Z,82.90
2023-05-18T23:14:16.079Z,82.90
2023-05-18T23:16:43.548Z,83.10
2023-05-18T23:19:14.409Z,83.00
2023-05-18T23:21:41.915Z,83.20
2023-05-18T23:24:12.295Z,83.20
2023-05-18T23:26:43.542Z,83.20
2023-05-18T23:29:11.514Z,83.30
2023-05-18T23:31:38.935Z,83.40
2023-05-18T23:34:06.513Z,83.40
2023-05-18T23:36:35.276Z,83.30
2023-05-18T23:39:03.079Z,83.40
2023-05-18T23:41:32.132Z,83.40
2023-05-18T23:43:59.890Z,83.30
2023-05-18T23:46:27.739Z,83.30
2023-05-18T23:48:57.858Z,83.40
2023-05-18T23:51:29.693Z,83.40
2023-05-18T23:53:58.765Z,83.50
2023-05-18T23:56:26.497Z,84.30
2023-05-18T23:58:54.351Z,83.60
